createdAt,value
2019-06-10T00:01:47.017Z,25.20
2019-06-10T00:04:17.255Z,23.50
2019-06-10T00:06:47.409Z,21.80
2019-06-10T00:09:17.644Z,17.82
2019-06-10T00:11:47.734Z,20.90
2019-06-10T00:14:17.905Z,21.23
2019-06-10T00:16:48.062Z,24.63
2019-06-10T00:19:18.293Z,23.70
2019-06-10T00:21:50.738Z,20.48
2019-06-10T00:24:21.230Z,20.35
2019-06-10T00:26:51.520Z,24.87
2019-06-10T00:29:22.344Z,23.02
2019-06-10T00:31:53.692Z,26.17
2019-06-10T00:34:23.783Z,22.37
2019-06-10T00:36:53.958Z,24.23
2019-06-10T00:39:24.117Z,28.83
2019-06-10T00:41:54.289Z,26.17
2019-06-10T00:44:24.516Z,32.05
2019-06-10T00:46:54.688Z,30.60
2019-06-10T00:49:24.863Z,28.00
2019-06-10T00:51:54.987Z,27.95
2019-06-10T00:54:25.173Z,31.73
2019-06-10T00:56:55.315Z,25.05
2019-06-10T00:59:25.422Z,31.80
2019-06-10T01:01:55.569Z,26.07
2019-06-10T01:04:25.809Z,30.05
2019-06-10T01:06:55.971Z,29.80
2019-06-10T01:09:26.131Z,25.25
2019-06-10T01:11:56.218Z,29.98
2019-06-10T01:14:26.245Z,26.90
2019-06-10T01:16:56.396Z,31.25
2019-06-10T01:19:26.504Z,32.78
2019-06-10T01:21:56.663Z,28.45
2019-06-10T01:24:26.744Z,30.02
2019-06-10T01:26:56.765Z,36.45
2019-06-10T01:29:26.960Z,31.70
2019-06-10T01:31:57.099Z,32.45
2019-06-10T01:34:27.201Z,32.23
2019-06-10T01:36:57.359Z,36.98
2019-06-10T01:39:27.519Z,34.20
2019-06-10T01:41:57.679Z,32.20
2019-06-10T01:44:27.840Z,31.80
2019-06-10T01:46:57.995Z,32.95
2019-06-10T01:49:30.601Z,33.90
2019-06-10T01:52:01.611Z,34.90
2019-06-10T01:54:32.116Z,36.60
2019-06-10T01:57:02.282Z,35.50
2019-06-10T01:59:32.446Z,35.63
2019-06-10T02:02:04.182Z,32.88
2019-06-10T02:04:34.417Z,28.73
2019-06-10T02:07:04.693Z,36.45
2019-06-10T02:09:34.793Z,26.02
2019-06-10T02:12:05.047Z,24.50
2019-06-10T02:14:35.284Z,31.85
2019-06-10T02:17:05.517Z,27.13
2019-06-10T02:19:35.684Z,26.37
2019-06-10T02:22:05.831Z,29.30
2019-06-10T02:24:36.004Z,30.48
2019-06-10T02:27:06.227Z,25.95
2019-06-10T02:29:36.392Z,31.00
2019-06-10T02:32:06.549Z,28.83
2019-06-10T02:34:43.289Z,28.10
2019-06-10T02:37:08.481Z,26.48
2019-06-10T02:39:39.268Z,26.02
2019-06-10T02:42:14.703Z,28.90
2019-06-10T02:44:44.612Z,27.98
2019-06-10T02:47:19.175Z,26.50
2019-06-10T02:49:57.523Z,28.20
2019-06-10T02:52:22.345Z,28.38
2019-06-10T02:54:53.474Z,35.15
2019-06-10T02:57:29.665Z,31.20
2019-06-10T02:59:54.597Z,33.33
2019-06-10T03:02:29.974Z,31.25
2019-06-10T03:04:56.573Z,31.60
2019-06-10T03:07:29.355Z,34.35
2019-06-10T03:09:58.447Z,30.72
2019-06-10T03:12:28.605Z,33.45
2019-06-10T03:14:58.674Z,38.63
2019-06-10T03:17:28.840Z,32.67
2019-06-10T03:19:59.065Z,31.50
2019-06-10T03:22:29.238Z,34.55
2019-06-10T03:24:59.385Z,42.30
2019-06-10T03:27:29.561Z,31.15
2019-06-10T03:30:02.784Z,39.35
2019-06-10T03:32:36.604Z,33.90
2019-06-10T03:35:05.742Z,35.58
2019-06-10T03:37:36.093Z,38.02
2019-06-10T03:40:07.649Z,32.88
2019-06-10T03:42:37.907Z,35.10
2019-06-10T03:45:08.830Z,31.20
2019-06-10T03:47:43.625Z,37.00
2019-06-10T03:50:13.815Z,33.08
2019-06-10T03:52:43.872Z,41.75
2019-06-10T03:55:14.048Z,31.90
2019-06-10T03:57:44.191Z,42.73
2019-06-10T04:00:14.492Z,38.80
2019-06-10T04:02:44.550Z,33.20
2019-06-10T04:05:14.774Z,35.23
2019-06-10T04:07:44.813Z,35.40
2019-06-10T04:10:14.958Z,32.35
2019-06-10T04:12:45.078Z,36.50
2019-06-10T04:15:15.398Z,29.00
2019-06-10T04:17:45.446Z,31.93
2019-06-10T04:20:15.749Z,29.85
2019-06-10T04:22:45.869Z,32.53
2019-06-10T04:25:16.130Z,32.25
2019-06-10T04:27:46.172Z,35.03
2019-06-10T04:30:18.228Z,35.03
2019-06-10T04:32:48.400Z,33.85
2019-06-10T04:35:18.554Z,30.48
2019-06-10T04:37:48.783Z,37.05
2019-06-10T04:40:20.361Z,34.58
2019-06-10T04:42:52.506Z,33.23
2019-06-10T04:45:23.646Z,28.50
2019-06-10T04:47:54.508Z,35.10
2019-06-10T04:50:34.567Z,26.87
2019-06-10T04:52:56.256Z,31.42
2019-06-10T04:55:27.694Z,32.13
2019-06-10T04:57:58.322Z,29.67
2019-06-10T05:00:29.132Z,31.50
2019-06-10T05:03:02.719Z,24.52
2019-06-10T05:05:32.761Z,29.15
2019-06-10T05:08:03.114Z,33.28
2019-06-10T05:10:34.301Z,31.57
2019-06-10T05:13:04.519Z,28.17
2019-06-10T05:15:34.908Z,30.30
2019-06-10T05:18:06.439Z,35.03
2019-06-10T05:20:51.054Z,26.42
2019-06-10T05:23:09.255Z,30.72
2019-06-10T05:25:40.049Z,28.47
2019-06-10T05:28:12.141Z,29.75
2019-06-10T05:30:42.614Z,40.00
2019-06-10T05:33:13.480Z,31.70
2019-06-10T05:35:43.607Z,33.73
2019-06-10T05:38:14.883Z,36.80
2019-06-10T05:40:45.019Z,35.17
2019-06-10T05:43:15.162Z,35.35
2019-06-10T05:45:45.247Z,30.48
2019-06-10T05:48:16.895Z,35.03
2019-06-10T05:50:59.242Z,31.50
2019-06-10T05:53:18.825Z,33.38
2019-06-10T05:55:48.988Z,34.13
2019-06-10T05:58:19.018Z,30.60
2019-06-10T06:00:49.239Z,33.65
2019-06-10T06:03:19.362Z,31.77
2019-06-10T06:05:49.573Z,34.85
2019-06-10T06:08:19.696Z,27.35
2019-06-10T06:10:49.764Z,28.83
2019-06-10T06:13:19.886Z,29.45
2019-06-10T06:15:52.593Z,27.90
2019-06-10T06:18:22.547Z,25.40
2019-06-10T06:20:52.930Z,30.70
2019-06-10T06:23:30.660Z,23.50
2019-06-10T06:26:03.900Z,21.60
2019-06-10T06:28:36.089Z,26.65
2019-06-10T06:31:06.180Z,26.62
2019-06-10T06:33:38.556Z,25.90
2019-06-10T06:36:08.089Z,20.95
2019-06-10T06:38:39.198Z,21.65
2019-06-10T06:41:09.396Z,26.02
2019-06-10T06:43:44.311Z,19.77
2019-06-10T06:46:13.731Z,21.17
2019-06-10T06:48:44.164Z,23.27
2019-06-10T06:51:14.485Z,19.23
2019-06-10T06:53:51.729Z,24.43
2019-06-10T06:56:16.364Z,19.62
2019-06-10T06:58:46.578Z,25.48
2019-06-10T07:01:16.700Z,23.15
2019-06-10T07:03:46.848Z,20.43
2019-06-10T07:06:17.044Z,25.48
2019-06-10T07:09:00.400Z,19.50
2019-06-10T07:11:19.106Z,17.50
2019-06-10T07:13:49.231Z,19.32
2019-06-10T07:16:19.354Z,20.08
2019-06-10T07:18:50.425Z,17.70
2019-06-10T07:21:22.752Z,16.97
2019-06-10T07:23:53.007Z,21.37
2019-06-10T07:26:24.157Z,14.03
2019-06-10T07:28:54.222Z,16.67
2019-06-10T07:31:27.846Z,13.13
2019-06-10T07:33:56.216Z,16.32
2019-06-10T07:36:26.275Z,20.60
2019-06-10T07:38:56.339Z,15.32
2019-06-10T07:41:26.608Z,18.55
2019-06-10T07:43:56.782Z,20.37
2019-06-10T07:46:26.978Z,20.92
2019-06-10T07:48:57.069Z,20.90
2019-06-10T07:51:27.185Z,19.98
2019-06-10T07:53:58.412Z,23.15
2019-06-10T07:56:31.680Z,18.20
2019-06-10T07:59:00.348Z,16.45
2019-06-10T08:01:33.306Z,14.40
2019-06-10T08:04:07.102Z,20.48
2019-06-10T08:06:37.909Z,21.02
2019-06-10T08:09:08.204Z,15.58
2019-06-10T08:11:39.299Z,17.73
2019-06-10T08:14:09.601Z,19.87
2019-06-10T08:16:39.898Z,20.12
2019-06-10T08:19:26.127Z,14.28
2019-06-10T08:21:46.150Z,14.53
2019-06-10T08:24:13.662Z,11.97
2019-06-10T08:26:45.593Z,12.25
2019-06-10T08:29:15.478Z,14.75
2019-06-10T08:31:48.470Z,10.90
2019-06-10T08:34:17.423Z,15.10
2019-06-10T08:36:50.515Z,10.60
2019-06-10T08:39:19.331Z,12.68
2019-06-10T08:41:49.523Z,14.65
2019-06-10T08:44:19.770Z,15.80
2019-06-10T08:46:52.301Z,15.03
2019-06-10T08:49:23.840Z,13.98
2019-06-10T08:51:53.765Z,12.80
2019-06-10T08:54:24.018Z,11.55
2019-06-10T08:56:55.471Z,13.83
2019-06-10T08:59:25.796Z,14.63
2019-06-10T09:01:57.068Z,10.28
2019-06-10T09:04:29.429Z,12.93
2019-06-10T09:06:59.068Z,13.72
2019-06-10T09:09:29.126Z,20.00
2019-06-10T09:11:59.258Z,15.20
2019-06-10T09:14:29.387Z,17.57
2019-06-10T09:16:59.501Z,14.25
2019-06-10T09:19:29.642Z,17.02
2019-06-10T09:21:59.924Z,9.08
2019-06-10T09:24:29.942Z,11.45
2019-06-10T09:27:02.708Z,12.63
2019-06-10T09:29:32.863Z,13.35
2019-06-10T09:32:03.163Z,12.55
2019-06-10T09:34:33.431Z,11.20
2019-06-10T09:37:04.120Z,12.43
2019-06-10T09:39:34.389Z,13.13
2019-06-10T09:42:06.450Z,16.73
2019-06-10T09:44:36.422Z,14.35
2019-06-10T09:47:06.633Z,13.72
2019-06-10T09:49:37.842Z,9.88
2019-06-10T09:52:09.034Z,9.53
2019-06-10T09:54:41.654Z,11.73
2019-06-10T09:57:12.682Z,9.75
2019-06-10T09:59:46.367Z,9.48
2019-06-10T10:02:14.721Z,12.53
2019-06-10T10:04:49.094Z,9.93
2019-06-10T10:07:17.237Z,9.40
2019-06-10T10:09:51.431Z,13.58
2019-06-10T10:12:22.794Z,14.05
2019-06-10T10:14:56.135Z,14.38
2019-06-10T10:17:24.361Z,19.62
2019-06-10T10:19:56.898Z,11.73
2019-06-10T10:22:26.284Z,14.87
2019-06-10T10:24:57.016Z,10.82
2019-06-10T10:27:27.415Z,11.83
2019-06-10T10:29:57.575Z,11.80
2019-06-10T10:32:27.608Z,15.75
2019-06-10T10:34:57.731Z,9.45
2019-06-10T10:37:27.850Z,14.73
2019-06-10T10:39:57.919Z,16.15
2019-06-10T10:42:41.809Z,12.53
2019-06-10T10:45:00.323Z,19.80
2019-06-10T10:47:33.548Z,13.90
2019-06-10T10:50:06.512Z,10.85
2019-06-10T10:52:36.588Z,8.08
2019-06-10T10:55:07.158Z,12.05
2019-06-10T10:57:37.465Z,16.27
2019-06-10T11:00:12.291Z,17.55
2019-06-10T11:02:43.170Z,16.82
2019-06-10T11:05:19.766Z,12.33
2019-06-10T11:07:49.985Z,12.15
2019-06-10T11:10:20.207Z,14.90
2019-06-10T11:12:51.658Z,20.50
2019-06-10T11:15:25.196Z,13.10
2019-06-10T11:17:56.480Z,15.15
2019-06-10T11:20:27.154Z,18.65
2019-06-10T11:22:57.965Z,19.42
2019-06-10T11:25:28.866Z,17.60
2019-06-10T11:27:59.065Z,18.07
2019-06-10T11:30:29.483Z,19.15
2019-06-10T11:32:59.728Z,16.20
2019-06-10T11:35:29.932Z,18.52
2019-06-10T11:38:03.247Z,18.73
2019-06-10T11:40:34.190Z,15.68
2019-06-10T11:43:04.477Z,24.67
2019-06-10T11:45:34.645Z,24.43
2019-06-10T11:48:05.241Z,21.05
2019-06-10T11:50:35.381Z,13.55
2019-06-10T11:53:05.603Z,15.85
2019-06-10T11:55:35.794Z,15.00
2019-06-10T11:58:06.019Z,18.23
2019-06-10T12:00:36.354Z,16.32
2019-06-10T12:03:06.706Z,14.58
2019-06-10T12:05:36.902Z,10.68
2019-06-10T12:08:07.049Z,12.63
2019-06-10T12:10:37.174Z,18.82
2019-06-10T12:13:07.527Z,16.55
2019-06-10T12:16:19.859Z,16.50
2019-06-10T12:18:09.733Z,14.70
2019-06-10T12:20:42.517Z,14.85
2019-06-10T12:23:13.512Z,19.00
2019-06-10T12:25:44.187Z,13.48
2019-06-10T12:28:15.362Z,13.48
2019-06-10T12:30:47.043Z,16.17
2019-06-10T12:33:21.456Z,14.53
2019-06-10T12:35:48.966Z,16.25
2019-06-10T12:38:19.015Z,17.92
2019-06-10T12:40:49.141Z,15.58
2019-06-10T12:43:22.934Z,17.07
2019-06-10T12:45:53.011Z,10.03
2019-06-10T12:48:23.990Z,21.97
2019-06-10T12:50:57.328Z,21.30
2019-06-10T12:53:25.884Z,18.55
2019-06-10T12:55:57.624Z,21.00
2019-06-10T12:58:27.814Z,14.00
2019-06-10T13:00:59.305Z,12.85
2019-06-10T13:03:32.647Z,12.85
2019-06-10T13:06:07.170Z,14.40
2019-06-10T13:08:35.711Z,14.40
2019-06-10T13:11:05.822Z,15.38
2019-06-10T13:13:35.937Z,9.90
2019-06-10T13:16:09.132Z,25.32
2019-06-10T13:18:39.182Z,17.07
2019-06-10T13:21:13.876Z,12.93
2019-06-10T13:23:43.235Z,17.42
2019-06-10T13:26:16.488Z,13.90
2019-06-10T13:28:44.801Z,19.25
2019-06-10T13:31:14.861Z,17.85
2019-06-10T13:33:45.663Z,16.73
2019-06-10T13:36:17.196Z,18.15
2019-06-10T13:38:48.195Z,16.10
2019-06-10T13:41:18.356Z,17.32
2019-06-10T13:43:48.403Z,19.90
2019-06-10T13:46:18.547Z,19.35
2019-06-10T13:48:48.676Z,18.92
2019-06-10T13:51:18.801Z,16.00
2019-06-10T13:53:48.857Z,18.70
2019-06-10T13:56:42.101Z,14.47
2019-06-10T13:58:52.286Z,17.05
2019-06-10T14:01:22.501Z,14.28
2019-06-10T14:03:53.687Z,15.45
2019-06-10T14:06:39.719Z,18.00
2019-06-10T14:08:56.802Z,14.75
2019-06-10T14:11:30.008Z,12.73
2019-06-10T14:13:58.543Z,18.52
2019-06-10T14:16:28.669Z,20.95
2019-06-10T14:18:58.846Z,18.20
2019-06-10T14:21:28.939Z,17.65
2019-06-10T14:23:59.066Z,13.30
2019-06-10T14:26:37.827Z,17.90
2019-06-10T14:29:03.022Z,17.02
2019-06-10T14:31:40.579Z,23.75
2019-06-10T14:34:07.397Z,21.97
2019-06-10T14:36:36.286Z,14.25
2019-06-10T14:39:08.175Z,14.58
2019-06-10T14:41:38.280Z,15.48
2019-06-10T14:44:08.717Z,14.03
2019-06-10T14:46:38.840Z,21.57
2019-06-10T14:49:08.961Z,18.98
2019-06-10T14:51:39.107Z,20.08
2019-06-10T14:54:09.421Z,14.47
2019-06-10T14:56:52.552Z,18.30
2019-06-10T14:59:14.081Z,18.10
2019-06-10T15:01:43.066Z,17.55
2019-06-10T15:04:16.056Z,22.27
2019-06-10T15:06:45.018Z,16.93
2019-06-10T15:09:15.776Z,25.25
2019-06-10T15:11:45.882Z,19.77
2019-06-10T15:14:17.717Z,13.75
2019-06-10T15:16:47.756Z,17.65
2019-06-10T15:19:24.713Z,22.95
2019-06-10T15:21:49.501Z,21.07
2019-06-10T15:24:21.022Z,12.60
2019-06-10T15:27:07.937Z,22.30
2019-06-10T15:29:23.465Z,19.02
2019-06-10T15:32:09.030Z,26.02
2019-06-10T15:34:25.534Z,19.70
2019-06-10T15:36:55.797Z,16.48
2019-06-10T15:39:25.866Z,13.75
2019-06-10T15:41:55.928Z,18.00
2019-06-10T15:44:47.545Z,19.65
2019-06-10T15:46:57.861Z,15.88
2019-06-10T15:49:28.054Z,17.17
2019-06-10T15:51:58.173Z,25.37
2019-06-10T15:54:28.381Z,18.40
2019-06-10T15:56:58.576Z,15.03
2019-06-10T15:59:28.700Z,22.32
2019-06-10T16:01:58.828Z,16.52
2019-06-10T16:04:29.866Z,20.72
2019-06-10T16:07:02.941Z,22.58
2019-06-10T16:09:33.245Z,16.23
2019-06-10T16:12:03.647Z,19.70
2019-06-10T16:14:35.277Z,22.00
2019-06-10T16:17:05.472Z,19.77
2019-06-10T16:19:35.678Z,17.82
2019-06-10T16:22:05.735Z,14.68
2019-06-10T16:24:35.858Z,16.70
2019-06-10T16:27:07.221Z,19.07
2019-06-10T16:29:37.290Z,21.27
2019-06-10T16:32:07.477Z,15.60
2019-06-10T16:34:37.555Z,17.87
2019-06-10T16:37:43.516Z,23.35
2019-06-10T16:40:15.092Z,26.80
2019-06-10T16:42:45.354Z,22.60
2019-06-10T16:45:16.096Z,27.98
2019-06-10T16:47:47.362Z,22.95
2019-06-10T16:50:17.910Z,22.37
2019-06-10T16:52:47.965Z,20.57
2019-06-10T16:55:18.149Z,24.60
2019-06-10T16:57:58.854Z,19.17
2019-06-10T17:00:22.670Z,25.48
2019-06-10T17:02:52.925Z,20.80
2019-06-10T17:05:26.650Z,17.48
2019-06-10T17:07:54.995Z,27.42
2019-06-10T17:10:28.220Z,22.73
2019-06-10T17:13:03.126Z,20.45
2019-06-10T17:15:34.324Z,22.70
2019-06-10T17:18:04.965Z,22.40
2019-06-10T17:20:35.082Z,20.43
2019-06-10T17:23:24.640Z,15.63
2019-06-10T17:25:57.306Z,15.15
2019-06-10T17:28:32.674Z,18.65
2019-06-10T17:30:59.677Z,24.47
2019-06-10T17:33:31.884Z,25.72
2019-06-10T17:36:03.433Z,19.73
2019-06-10T17:38:33.527Z,21.50
2019-06-10T17:41:03.650Z,25.12
2019-06-10T17:43:34.477Z,25.57
2019-06-10T17:46:05.648Z,23.45
2019-06-10T17:48:35.710Z,23.80
2019-06-10T17:51:06.741Z,20.97
2019-06-10T17:53:36.807Z,16.12
2019-06-10T17:56:08.338Z,16.87
2019-06-10T17:58:51.634Z,20.97
2019-06-10T18:01:12.729Z,22.82
2019-06-10T18:03:43.195Z,29.23
2019-06-10T18:06:13.550Z,17.50
2019-06-10T18:08:43.759Z,22.93
2019-06-10T18:11:13.840Z,23.92
2019-06-10T18:13:43.877Z,21.97
2019-06-10T18:16:13.969Z,21.20
2019-06-10T18:18:45.164Z,20.10
2019-06-10T18:21:15.236Z,25.52
2019-06-10T18:23:45.356Z,33.65
2019-06-10T18:26:15.419Z,23.18
2019-06-10T18:29:00.314Z,24.23
2019-06-10T18:31:18.604Z,18.73
2019-06-10T18:33:48.966Z,20.85
2019-06-10T18:36:19.242Z,18.42
2019-06-10T18:38:49.446Z,24.70
2019-06-10T18:41:22.155Z,18.15
2019-06-10T18:43:51.380Z,20.92
2019-06-10T18:46:23.169Z,21.85
2019-06-10T18:48:53.632Z,19.07
2019-06-10T18:51:24.013Z,19.35
2019-06-10T18:53:54.146Z,27.45
2019-06-10T18:56:24.474Z,23.60
2019-06-10T18:58:54.540Z,22.05
2019-06-10T19:01:24.730Z,18.92
2019-06-10T19:03:54.795Z,19.77
2019-06-10T19:06:24.912Z,23.30
2019-06-10T19:08:55.063Z,20.10
2019-06-10T19:11:25.113Z,23.55
2019-06-10T19:13:55.173Z,29.65
2019-06-10T19:16:25.240Z,21.75
2019-06-10T19:18:56.374Z,14.78
2019-06-10T19:21:26.426Z,16.48
2019-06-10T19:23:56.509Z,22.20
2019-06-10T19:26:26.733Z,22.95
2019-06-10T19:28:57.479Z,19.15
2019-06-10T19:31:27.562Z,23.55
2019-06-10T19:33:57.676Z,20.32
2019-06-10T19:36:27.827Z,21.55
2019-06-10T19:38:57.868Z,16.80
2019-06-10T19:41:28.006Z,16.45
2019-06-10T19:43:58.130Z,17.45
2019-06-10T19:46:28.334Z,14.43
2019-06-10T19:49:03.207Z,19.02
2019-06-10T19:51:32.482Z,19.48
2019-06-10T19:54:03.595Z,22.30
2019-06-10T19:56:35.033Z,17.15
2019-06-10T19:59:05.437Z,25.52
2019-06-10T20:01:37.336Z,22.17
2019-06-10T20:04:07.250Z,27.37
2019-06-10T20:06:37.859Z,18.70
2019-06-10T20:09:10.125Z,23.50
2019-06-10T20:11:42.907Z,22.95
2019-06-10T20:14:12.810Z,22.85
2019-06-10T20:16:45.661Z,23.95
2019-06-10T20:19:15.106Z,19.65
2019-06-10T20:21:46.651Z,24.90
2019-06-10T20:24:16.834Z,22.98
2019-06-10T20:26:48.097Z,18.52
2019-06-10T20:29:19.398Z,20.05
2019-06-10T20:31:49.450Z,22.45
2019-06-10T20:34:22.414Z,19.55
2019-06-10T20:36:52.549Z,28.52
2019-06-10T20:39:24.834Z,17.95
2019-06-10T20:41:55.703Z,22.13
2019-06-10T20:44:26.085Z,22.87
2019-06-10T20:46:56.232Z,18.65
2019-06-10T20:49:26.328Z,29.30
2019-06-10T20:52:08.185Z,20.92
2019-06-10T20:54:28.271Z,19.40
2019-06-10T20:56:58.454Z,22.45
2019-06-10T20:59:28.662Z,20.97
2019-06-10T21:01:58.791Z,17.87
2019-06-10T21:04:28.985Z,17.10
2019-06-10T21:07:02.817Z,22.37
2019-06-10T21:09:33.202Z,18.98
2019-06-10T21:12:03.255Z,21.33
2019-06-10T21:14:33.381Z,26.42
2019-06-10T21:17:03.589Z,18.92
2019-06-10T21:19:33.772Z,20.40
2019-06-10T21:22:05.044Z,21.15
2019-06-10T21:24:35.226Z,20.10
2019-06-10T21:27:05.422Z,27.52
2019-06-10T21:29:35.467Z,22.55
2019-06-10T21:32:05.597Z,24.07
2019-06-10T21:34:35.656Z,22.30
2019-06-10T21:37:05.881Z,16.62
2019-06-10T21:39:36.020Z,17.92
2019-06-10T21:42:06.131Z,21.50
2019-06-10T21:44:36.255Z,15.50
2019-06-10T21:47:06.318Z,22.77
2019-06-10T21:49:36.439Z,23.85
2019-06-10T21:52:06.580Z,20.82
2019-06-10T21:54:36.693Z,26.12
2019-06-10T21:57:06.777Z,23.15
2019-06-10T21:59:36.852Z,20.60
2019-06-10T22:02:07.044Z,24.43
2019-06-10T22:04:37.118Z,19.65
2019-06-10T22:07:07.314Z,23.57
2019-06-10T22:09:37.365Z,15.98
2019-06-10T22:12:07.628Z,17.00
2019-06-10T22:14:37.693Z,23.75
2019-06-10T22:17:07.822Z,20.85
2019-06-10T22:19:37.957Z,17.25
2019-06-10T22:22:08.016Z,20.27
2019-06-10T22:24:38.062Z,23.07
2019-06-10T22:27:08.186Z,18.92
2019-06-10T22:29:38.368Z,22.20
2019-06-10T22:32:08.579Z,27.00
2019-06-10T22:34:38.688Z,23.10
2019-06-10T22:37:08.757Z,22.20
2019-06-10T22:39:38.802Z,22.93
2019-06-10T22:42:08.870Z,22.70
2019-06-10T22:44:38.912Z,22.15
2019-06-10T22:47:09.047Z,21.05
2019-06-10T22:49:39.164Z,18.80
2019-06-10T22:52:09.237Z,27.65
2019-06-10T22:54:39.320Z,20.05
2019-06-10T22:57:09.461Z,14.55
2019-06-10T22:59:39.598Z,16.55
2019-06-10T23:02:09.726Z,17.05
2019-06-10T23:04:39.857Z,17.85
2019-06-10T23:07:09.994Z,24.55
2019-06-10T23:09:42.689Z,24.00
2019-06-10T23:12:12.133Z,26.77
2019-06-10T23:14:43.402Z,18.42
2019-06-10T23:17:14.206Z,24.72
2019-06-10T23:19:44.389Z,25.48
2019-06-10T23:22:14.510Z,17.77
2019-06-10T23:24:44.645Z,25.48
2019-06-10T23:27:14.755Z,20.12
2019-06-10T23:29:44.823Z,23.47
2019-06-10T23:32:14.958Z,23.52
2019-06-10T23:34:45.022Z,21.97
2019-06-10T23:37:15.228Z,19.37
2019-06-10T23:39:45.358Z,25.50
2019-06-10T23:42:15.490Z,26.68
2019-06-10T23:44:45.618Z,23.90
2019-06-10T23:47:15.803Z,21.20
2019-06-10T23:49:45.869Z,23.27
2019-06-10T23:52:16.059Z,21.17
2019-06-10T23:54:46.181Z,19.87
2019-06-10T23:57:16.301Z,19.32
2019-06-10T23:59:46.429Z,22.37
